Time;durP1;ratioP1;P1;durP2;ratioP2;P2;SDS_P1;SDS_P2;PMS_P1;PMS_P2;Temp;Humidity;BMP_temperature;BMP_pressure;BME280_temperature;BME280_humidity;BME280_pressure;Samples;Min_cycle;Max_cycle;Signal;HPM_P1;HPM_P2
2021/08/31 00:00:49;;;;;;;4.07;2.05;;;;;;;;;;10252260;28;20445;-64
2021/08/31 00:05:47;;;;;;;1.83;0.97;;;;;;;;;;10256531;28;20044;-63
2021/08/31 00:10:44;;;;;;;2.83;1.73;;;;;;;;;;10259601;28;20033;-65
2021/08/31 00:15:41;;;;;;;3.37;1.37;;;;;;;;;;10261305;28;20144;-64
2021/08/31 00:20:39;;;;;;;3.40;1.30;;;;;;;;;;10263632;28;20557;-65
2021/08/31 00:25:36;;;;;;;3.73;1.47;;;;;;;;;;10264590;28;20052;-66
2021/08/31 00:30:34;;;;;;;1.93;0.70;;;;;;;;;;10264951;28;20045;-65
2021/08/31 00:35:31;;;;;;;2.70;0.70;;;;;;;;;;10265142;28;20038;-65
2021/08/31 00:40:28;;;;;;;1.03;0.93;;;;;;;;;;10260072;28;20053;-64
2021/08/31 00:45:26;;;;;;;14.27;7.27;;;;;;;;;;10263504;28;20433;-65
2021/08/31 00:50:23;;;;;;;8.27;5.47;;;;;;;;;;10267097;28;20117;-66
2021/08/31 00:55:20;;;;;;;9.23;6.03;;;;;;;;;;10266670;28;20092;-67
2021/08/31 01:00:18;;;;;;;8.43;4.77;;;;;;;;;;10265986;28;20133;-66
2021/08/31 01:05:15;;;;;;;6.30;3.57;;;;;;;;;;10264932;28;20046;-66
2021/08/31 01:10:15;;;;;;;8.50;4.20;;;;;;;;;;10264808;28;20037;-66
2021/08/31 01:15:13;;;;;;;11.35;5.75;;;;;;;;;;10266291;28;20515;-66
2021/08/31 01:20:11;;;;;;;10.50;5.65;;;;;;;;;;10265190;28;20038;-66
2021/08/31 01:25:09;;;;;;;8.35;5.03;;;;;;;;;;10265569;28;20049;-64
2021/08/31 01:30:06;;;;;;;7.17;4.60;;;;;;;;;;10264074;28;20046;-65
2021/08/31 01:35:04;;;;;;;6.20;3.37;;;;;;;;;;10265650;28;20042;-65
2021/08/31 01:40:01;;;;;;;6.60;2.30;;;;;;;;;;10265621;28;20038;-64
2021/08/31 01:44:59;;;;;;;14.57;5.10;;;;;;;;;;10265136;28;20605;-65
2021/08/31 01:49:56;;;;;;;7.97;4.33;;;;;;;;;;10256284;28;20453;-64
2021/08/31 01:54:53;;;;;;;4.07;2.70;;;;;;;;;;10265134;28;20041;-66
2021/08/31 01:59:51;;;;;;;8.37;3.20;;;;;;;;;;10265418;28;20034;-66
2021/08/31 02:04:48;;;;;;;10.40;3.90;;;;;;;;;;10264388;28;20056;-66
2021/08/31 02:09:45;;;;;;;9.53;4.50;;;;;;;;;;10265017;28;20521;-66
2021/08/31 02:14:43;;;;;;;6.63;3.47;;;;;;;;;;10265110;28;20042;-66
2021/08/31 02:19:40;;;;;;;5.37;3.23;;;;;;;;;;10264213;28;20026;-66
2021/08/31 02:24:37;;;;;;;8.33;4.10;;;;;;;;;;10262741;28;20152;-66
2021/08/31 02:29:36;;;;;;;6.55;4.20;;;;;;;;;;10256044;28;20168;-66
2021/08/31 02:34:33;;;;;;;7.63;3.50;;;;;;;;;;10264572;28;20041;-66
2021/08/31 02:39:31;;;;;;;5.27;3.40;;;;;;;;;;10263706;28;20042;-66
2021/08/31 02:44:28;;;;;;;5.43;3.20;;;;;;;;;;10263960;28;20045;-65
2021/08/31 02:49:26;;;;;;;4.83;2.97;;;;;;;;;;10262908;28;20042;-64
2021/08/31 02:54:23;;;;;;;8.20;3.67;;;;;;;;;;10263939;28;20041;-65
2021/08/31 02:59:21;;;;;;;7.83;3.27;;;;;;;;;;10260382;28;20069;-65
2021/08/31 03:04:18;;;;;;;3.60;2.17;;;;;;;;;;10263171;28;20100;-65
2021/08/31 03:09:16;;;;;;;6.13;3.40;;;;;;;;;;10254709;28;20593;-65
2021/08/31 03:14:19;;;;;;;6.17;3.43;;;;;;;;;;10262894;28;20022;-65
2021/08/31 03:19:17;;;;;;;4.65;3.13;;;;;;;;;;10260245;28;20026;-65
2021/08/31 03:36:20;;;;;;;11.15;4.72;;;;;;;;;;10268361;28;20438;-64
2021/08/31 03:41:18;;;;;;;8.33;4.30;;;;;;;;;;10271292;28;20045;-65
2021/08/31 03:46:15;;;;;;;4.40;2.83;;;;;;;;;;10230325;28;20050;-65
2021/08/31 03:51:12;;;;;;;2.87;1.80;;;;;;;;;;10256396;28;20048;-65
2021/08/31 03:56:10;;;;;;;2.60;1.80;;;;;;;;;;10255322;28;20469;-65
2021/08/31 04:01:08;;;;;;;3.03;1.97;;;;;;;;;;10257373;28;20297;-65
2021/08/31 04:06:05;;;;;;;2.20;1.73;;;;;;;;;;10254994;28;20037;-66
2021/08/31 04:11:02;;;;;;;3.47;2.20;;;;;;;;;;10253534;28;20072;-65
2021/08/31 04:16:00;;;;;;;0.93;0.90;;;;;;;;;;10254764;28;20479;-67
2021/08/31 04:20:57;;;;;;;2.97;1.40;;;;;;;;;;10258544;28;20055;-65
2021/08/31 04:25:55;;;;;;;2.67;1.10;;;;;;;;;;10254937;28;20533;-65
2021/08/31 04:30:52;;;;;;;3.23;0.73;;;;;;;;;;10255021;28;20041;-65
2021/08/31 04:35:49;;;;;;;1.60;0.67;;;;;;;;;;10250347;28;20498;-65
2021/08/31 04:40:47;;;;;;;4.17;1.00;;;;;;;;;;10251848;28;20041;-66
2021/08/31 04:45:44;;;;;;;4.07;1.30;;;;;;;;;;10238839;28;20030;-65
2021/08/31 04:50:42;;;;;;;2.93;1.67;;;;;;;;;;10255418;28;20053;-66
2021/08/31 04:55:39;;;;;;;2.23;1.73;;;;;;;;;;10253592;28;20037;-64
2021/08/31 05:00:36;;;;;;;3.47;1.47;;;;;;;;;;10248106;28;20096;-61
2021/08/31 05:05:34;;;;;;;1.97;1.33;;;;;;;;;;10252159;28;20041;-63
2021/08/31 05:10:32;;;;;;;1.98;1.27;;;;;;;;;;10234145;28;20487;-63
2021/08/31 05:15:30;;;;;;;2.97;1.67;;;;;;;;;;10248210;28;20034;-63
2021/08/31 05:20:28;;;;;;;2.35;1.60;;;;;;;;;;10253372;28;20498;-63
2021/08/31 05:25:26;;;;;;;1.80;1.10;;;;;;;;;;10243789;28;20061;-63
2021/08/31 05:30:24;;;;;;;1.50;1.10;;;;;;;;;;10252933;28;20040;-62
2021/08/31 05:35:21;;;;;;;3.33;1.10;;;;;;;;;;10220337;28;20044;-63
2021/08/31 05:40:20;;;;;;;1.60;1.17;;;;;;;;;;10246113;28;20054;-63
2021/08/31 05:45:18;;;;;;;0.60;0.60;;;;;;;;;;10245878;28;20061;-63
2021/08/31 05:50:15;;;;;;;1.60;0.73;;;;;;;;;;10230044;28;21337;-63
2021/08/31 05:55:13;;;;;;;1.42;1.33;;;;;;;;;;10234986;28;20034;-61
2021/08/31 06:00:11;;;;;;;3.73;1.63;;;;;;;;;;10253532;28;20034;-64
2021/08/31 06:05:12;;;;;;;0.73;0.73;;;;;;;;;;10244815;28;20080;-65
2021/08/31 06:10:09;;;;;;;3.67;1.20;;;;;;;;;;10236878;28;20124;-63
2021/08/31 06:15:07;;;;;;;1.33;1.10;;;;;;;;;;10240148;28;20033;-63
2021/08/31 06:20:06;;;;;;;7.40;1.43;;;;;;;;;;10244257;28;20042;-61
2021/08/31 06:25:04;;;;;;;2.35;1.60;;;;;;;;;;10240870;28;20049;-64
2021/08/31 06:30:01;;;;;;;2.43;1.40;;;;;;;;;;10258028;28;20034;-61
2021/08/31 06:34:59;;;;;;;6.77;1.37;;;;;;;;;;10222377;28;20041;-64
2021/08/31 06:39:56;;;;;;;3.60;1.67;;;;;;;;;;10241133;28;20042;-61
2021/08/31 06:44:53;;;;;;;5.10;2.20;;;;;;;;;;10252523;28;20042;-63
2021/08/31 06:49:51;;;;;;;4.70;2.07;;;;;;;;;;10253419;28;20067;-59
2021/08/31 06:54:49;;;;;;;3.95;2.05;;;;;;;;;;10240272;28;20048;-59
2021/08/31 06:59:46;;;;;;;7.27;2.00;;;;;;;;;;10255401;28;20038;-62
2021/08/31 07:04:44;;;;;;;5.03;1.63;;;;;;;;;;10239510;28;20048;-63
2021/08/31 07:09:41;;;;;;;2.90;1.87;;;;;;;;;;10239574;28;20048;-64
2021/08/31 07:14:38;;;;;;;5.07;2.00;;;;;;;;;;10244930;28;20046;-63
2021/08/31 07:19:36;;;;;;;3.53;1.80;;;;;;;;;;10252527;28;20041;-64
2021/08/31 07:24:33;;;;;;;2.50;1.27;;;;;;;;;;10251281;28;20045;-64
2021/08/31 07:29:31;;;;;;;5.20;1.77;;;;;;;;;;10243137;28;20850;-64
2021/08/31 07:34:28;;;;;;;4.53;2.00;;;;;;;;;;10249081;28;20426;-61
2021/08/31 07:39:26;;;;;;;2.90;1.15;;;;;;;;;;10255806;28;20026;-64
2021/08/31 07:44:23;;;;;;;5.37;2.00;;;;;;;;;;10228871;28;20030;-64
2021/08/31 07:49:21;;;;;;;1.50;1.03;;;;;;;;;;10245186;28;20359;-64
2021/08/31 07:54:18;;;;;;;9.43;2.00;;;;;;;;;;10249543;28;20084;-64
2021/08/31 07:59:16;;;;;;;2.80;1.53;;;;;;;;;;10243297;28;20184;-63
2021/08/31 08:04:13;;;;;;;3.13;2.23;;;;;;;;;;10223038;28;20042;-61
2021/08/31 08:09:10;;;;;;;5.97;1.70;;;;;;;;;;10243644;28;20080;-62
2021/08/31 08:14:08;;;;;;;3.10;1.70;;;;;;;;;;10241781;28;20462;-62
2021/08/31 08:19:05;;;;;;;3.27;1.73;;;;;;;;;;10250394;28;20502;-63
2021/08/31 08:24:03;;;;;;;4.30;2.10;;;;;;;;;;10246764;28;20665;-61
2021/08/31 08:29:01;;;;;;;3.83;1.75;;;;;;;;;;10245030;28;20033;-63
2021/08/31 08:33:59;;;;;;;6.43;2.50;;;;;;;;;;10256338;28;20034;-63
2021/08/31 08:38:56;;;;;;;;;;;;;;;;;;10255494;28;20030;-60
2021/08/31 08:43:58;;;;;;;4.57;1.45;;;;;;;;;;10261550;28;19917;-63
2021/08/31 08:48:57;;;;;;;4.22;1.60;;;;;;;;;;10261509;28;20042;-61
2021/08/31 08:53:55;;;;;;;3.70;1.40;;;;;;;;;;10254957;28;20122;-63
2021/08/31 08:58:52;;;;;;;;;;;;;;;;;;10255469;28;20189;-62
2021/08/31 09:03:53;;;;;;;3.58;1.85;;;;;;;;;;10255415;28;19924;-62
2021/08/31 09:08:54;;;;;;;4.80;1.85;;;;;;;;;;10258746;28;20092;-63
2021/08/31 09:13:52;;;;;;;4.55;1.15;;;;;;;;;;10261264;28;20042;-62
2021/08/31 09:18:51;;;;;;;4.85;1.90;;;;;;;;;;10252825;28;20368;-60
2021/08/31 09:23:49;;;;;;;2.70;0.98;;;;;;;;;;10242784;28;20123;-63
2021/08/31 09:28:47;;;;;;;6.03;1.55;;;;;;;;;;10256157;28;20402;-64
2021/08/31 09:33:45;;;;;;;2.30;1.08;;;;;;;;;;10252782;28;20026;-63
2021/08/31 09:38:49;;;;;;;4.63;1.67;;;;;;;;;;10252556;28;20041;-63
2021/08/31 09:43:50;;;;;;;3.70;1.80;;;;;;;;;;10241556;28;20123;-64
2021/08/31 09:48:47;;;;;;;5.07;2.42;;;;;;;;;;10250911;28;20048;-64
2021/08/31 09:53:45;;;;;;;3.13;1.70;;;;;;;;;;10251219;28;20514;-63
2021/08/31 09:58:44;;;;;;;4.50;1.52;;;;;;;;;;10256450;28;20288;-62
2021/08/31 10:03:43;;;;;;;4.97;1.45;;;;;;;;;;10249323;28;20354;-64
2021/08/31 10:08:41;;;;;;;4.22;2.67;;;;;;;;;;10247422;28;20026;-63
2021/08/31 10:13:41;;;;;;;2.35;1.45;;;;;;;;;;10249677;28;20478;-63
2021/08/31 10:18:38;;;;;;;1.08;0.80;;;;;;;;;;10254046;28;20538;-62
2021/08/31 10:23:47;;;;;;;3.73;1.90;;;;;;;;;;10253507;28;20038;-62
2021/08/31 10:28:45;;;;;;;3.78;2.30;;;;;;;;;;10251596;28;20650;-60
2021/08/31 10:33:42;;;;;;;4.57;2.90;;;;;;;;;;10251042;28;20032;-63
2021/08/31 10:38:40;;;;;;;1.90;1.37;;;;;;;;;;10253517;28;20072;-62
2021/08/31 10:43:51;;;;;;;6.67;2.60;;;;;;;;;;10244939;28;20465;-61
2021/08/31 10:49:06;;;;;;;4.20;2.33;;;;;;;;;;10255847;28;20299;-63
2021/08/31 10:54:04;;;;;;;6.15;1.67;;;;;;;;;;10249415;28;20087;-62
2021/08/31 10:59:04;;;;;;;5.40;2.00;;;;;;;;;;10245838;28;20176;-61
2021/08/31 11:04:02;;;;;;;6.72;2.42;;;;;;;;;;10250833;28;20037;-61
2021/08/31 11:09:20;;;;;;;4.80;2.33;;;;;;;;;;10242422;28;20038;-63
2021/08/31 11:14:17;;;;;;;10.27;3.85;;;;;;;;;;10240269;28;20509;-63
2021/08/31 11:19:26;;;;;;;7.38;2.88;;;;;;;;;;10242973;28;20199;-63
2021/08/31 11:24:24;;;;;;;9.13;4.75;;;;;;;;;;10255170;28;20077;-61
2021/08/31 11:29:21;;;;;;;8.45;3.60;;;;;;;;;;10246346;28;20188;-63
2021/08/31 11:34:20;;;;;;;5.83;3.03;;;;;;;;;;10248490;28;20081;-60
2021/08/31 11:39:17;;;;;;;11.00;3.28;;;;;;;;;;10248136;28;20522;-64
2021/08/31 11:44:16;;;;;;;7.93;3.27;;;;;;;;;;10256527;28;21389;-63
2021/08/31 11:49:17;;;;;;;6.68;2.67;;;;;;;;;;10262168;28;20026;-63
2021/08/31 11:54:14;;;;;;;10.45;2.88;;;;;;;;;;10228526;28;20558;-63
2021/08/31 11:59:12;;;;;;;4.73;1.90;;;;;;;;;;10257626;28;20116;-63
2021/08/31 12:04:27;;;;;;;3.47;2.37;;;;;;;;;;10256862;28;20358;-63
2021/08/31 12:09:25;;;;;;;5.88;2.03;;;;;;;;;;10265395;28;20088;-62
2021/08/31 12:14:23;;;;;;;3.92;1.83;;;;;;;;;;10241488;28;20511;-63
2021/08/31 12:19:25;;;;;;;2.70;1.55;;;;;;;;;;10244313;28;20038;-61
2021/08/31 12:24:24;;;;;;;2.67;1.42;;;;;;;;;;10251513;28;20061;-61
2021/08/31 12:29:22;;;;;;;1.20;0.52;;;;;;;;;;10244302;28;20030;-63
2021/08/31 12:34:26;;;;;;;6.73;1.50;;;;;;;;;;10238945;28;20034;-62
2021/08/31 12:39:25;;;;;;;1.02;0.90;;;;;;;;;;10267047;28;20065;-61
2021/08/31 12:44:23;;;;;;;2.65;1.13;;;;;;;;;;10253853;28;20044;-61
2021/08/31 12:49:22;;;;;;;1.55;1.00;;;;;;;;;;10254778;28;20494;-60
2021/08/31 12:54:27;;;;;;;4.63;1.42;;;;;;;;;;10239407;28;20042;-62
2021/08/31 12:59:33;;;;;;;1.00;0.68;;;;;;;;;;10252694;28;20565;-63
2021/08/31 13:04:31;;;;;;;5.47;0.93;;;;;;;;;;10263876;28;20052;-61
2021/08/31 13:09:29;;;;;;;4.00;1.77;;;;;;;;;;10244039;28;20061;-61
2021/08/31 13:14:27;;;;;;;7.50;2.10;;;;;;;;;;10261043;28;20490;-62
2021/08/31 13:19:24;;;;;;;1.73;0.80;;;;;;;;;;10249434;28;20034;-63
2021/08/31 13:24:22;;;;;;;4.00;1.20;;;;;;;;;;10262273;28;20036;-62
2021/08/31 13:29:19;;;;;;;4.13;1.47;;;;;;;;;;10244335;28;20033;-61
2021/08/31 13:34:17;;;;;;;5.15;1.35;;;;;;;;;;10258631;28;20042;-62
2021/08/31 13:39:15;;;;;;;6.05;1.40;;;;;;;;;;10231498;28;20034;-62
2021/08/31 13:44:12;;;;;;;2.85;1.17;;;;;;;;;;10231236;28;20049;-62
2021/08/31 13:49:11;;;;;;;3.80;1.15;;;;;;;;;;10254893;28;20033;-62
2021/08/31 13:54:09;;;;;;;4.35;1.38;;;;;;;;;;10251938;28;20037;-62
2021/08/31 13:59:08;;;;;;;2.78;0.98;;;;;;;;;;10224573;28;20041;-60
2021/08/31 14:04:05;;;;;;;6.93;1.17;;;;;;;;;;10239507;28;20034;-64
2021/08/31 14:09:03;;;;;;;1.43;0.33;;;;;;;;;;10232241;28;20080;-61
2021/08/31 14:14:00;;;;;;;2.10;0.70;;;;;;;;;;10242368;28;20360;-63
2021/08/31 14:18:57;;;;;;;1.60;0.98;;;;;;;;;;10234014;28;20507;-62
2021/08/31 14:23:57;;;;;;;0.83;0.67;;;;;;;;;;10242566;28;20120;-62
2021/08/31 14:28:55;;;;;;;6.20;0.90;;;;;;;;;;10236337;28;20034;-63
2021/08/31 14:33:53;;;;;;;3.78;1.05;;;;;;;;;;10222710;28;20038;-63
2021/08/31 14:38:51;;;;;;;0.73;0.60;;;;;;;;;;10252757;28;20030;-63
2021/08/31 14:43:48;;;;;;;2.30;1.17;;;;;;;;;;10246864;28;20049;-63
2021/08/31 14:48:45;;;;;;;1.93;0.50;;;;;;;;;;10247977;28;20116;-63
2021/08/31 14:53:43;;;;;;;2.77;1.10;;;;;;;;;;10239490;28;20121;-63
2021/08/31 14:58:40;;;;;;;6.03;1.23;;;;;;;;;;10229574;28;20616;-63
2021/08/31 15:03:38;;;;;;;1.67;0.87;;;;;;;;;;10249830;28;20132;-63
2021/08/31 15:08:35;;;;;;;2.78;1.00;;;;;;;;;;10253605;28;20499;-63
2021/08/31 15:13:32;;;;;;;3.27;1.03;;;;;;;;;;10241626;28;20086;-64
2021/08/31 15:18:30;;;;;;;1.00;0.57;;;;;;;;;;10252772;28;20045;-65
2021/08/31 15:23:27;;;;;;;1.03;0.53;;;;;;;;;;10250593;28;20115;-63
2021/08/31 15:28:24;;;;;;;3.20;1.20;;;;;;;;;;10253857;28;20676;-60
2021/08/31 15:33:22;;;;;;;1.43;0.43;;;;;;;;;;10246681;28;20045;-64
2021/08/31 15:38:19;;;;;;;4.53;1.03;;;;;;;;;;10255810;28;20281;-65
2021/08/31 15:43:17;;;;;;;1.60;0.67;;;;;;;;;;10251591;28;20051;-64
2021/08/31 15:48:14;;;;;;;2.00;0.50;;;;;;;;;;10256162;28;20105;-62
2021/08/31 15:53:12;;;;;;;0.63;0.60;;;;;;;;;;10246521;28;20049;-61
2021/08/31 15:58:09;;;;;;;0.95;0.88;;;;;;;;;;10244344;28;20406;-63
2021/08/31 16:03:08;;;;;;;4.30;1.08;;;;;;;;;;10245220;28;20038;-64
2021/08/31 16:08:05;;;;;;;5.22;1.98;;;;;;;;;;10249756;28;20022;-63
2021/08/31 16:13:03;;;;;;;5.82;0.90;;;;;;;;;;10252435;28;20038;-62
2021/08/31 16:18:00;;;;;;;1.63;0.83;;;;;;;;;;10263894;28;20034;-63
2021/08/31 16:22:58;;;;;;;0.67;0.33;;;;;;;;;;10261080;28;20042;-63
2021/08/31 16:27:55;;;;;;;7.50;1.30;;;;;;;;;;10259713;28;20030;-63
2021/08/31 16:32:53;;;;;;;5.32;1.02;;;;;;;;;;10260357;28;20092;-61
2021/08/31 16:37:50;;;;;;;2.92;1.25;;;;;;;;;;10254772;28;20030;-63
2021/08/31 16:42:47;;;;;;;4.77;0.83;;;;;;;;;;10260738;28;20084;-64
2021/08/31 16:47:45;;;;;;;3.38;0.88;;;;;;;;;;10249978;28;20113;-62
2021/08/31 16:52:43;;;;;;;1.40;0.68;;;;;;;;;;10239803;28;20044;-64
2021/08/31 16:57:41;;;;;;;6.85;1.73;;;;;;;;;;10258601;28;20088;-63
2021/08/31 17:02:38;;;;;;;0.75;0.60;;;;;;;;;;10262719;28;20595;-64
2021/08/31 17:07:35;;;;;;;4.13;0.87;;;;;;;;;;10241314;28;20477;-62
2021/08/31 17:12:33;;;;;;;7.82;1.83;;;;;;;;;;10261023;28;20733;-62
2021/08/31 17:17:31;;;;;;;2.93;1.63;;;;;;;;;;10244005;28;20046;-62
2021/08/31 17:22:29;;;;;;;2.60;1.48;;;;;;;;;;10247491;28;20526;-61
2021/08/31 17:27:27;;;;;;;1.42;1.17;;;;;;;;;;10250718;28;20064;-62
2021/08/31 17:32:24;;;;;;;3.90;1.10;;;;;;;;;;10252155;28;20041;-62
2021/08/31 17:37:22;;;;;;;6.35;1.83;;;;;;;;;;10238016;28;20034;-61
2021/08/31 17:42:19;;;;;;;;;;;;;;;;;;10244108;28;20129;-61
2021/08/31 17:47:16;;;;;;;3.10;1.58;;;;;;;;;;10244810;28;20494;-62
2021/08/31 17:52:19;;;;;;;;;;;;;;;;;;10248822;28;20042;-58
2021/08/31 17:57:16;;;;;;;6.07;1.35;;;;;;;;;;10251945;28;19958;-64
2021/08/31 18:02:14;;;;;;;;;;;;;;;;;;10258025;28;20077;-58
2021/08/31 18:07:11;;;;;;;4.78;1.20;;;;;;;;;;10257067;28;20334;-62
2021/08/31 18:12:09;;;;;;;;;;;;;;;;;;10235142;28;20030;-60
2021/08/31 18:17:06;;;;;;;7.03;1.95;;;;;;;;;;10249198;28;19956;-63
2021/08/31 18:22:04;;;;;;;;;;;;;;;;;;10254210;28;20044;-63
2021/08/31 18:27:01;;;;;;;6.97;1.08;;;;;;;;;;10252329;28;20405;-60
2021/08/31 18:31:59;;;;;;;5.47;1.20;;;;;;;;;;10251405;28;20076;-60
2021/08/31 18:36:56;;;;;;;;;;;;;;;;;;10252273;28;20034;-60
2021/08/31 18:41:54;;;;;;;5.03;1.35;;;;;;;;;;10251004;28;20369;-61
2021/08/31 18:46:51;;;;;;;4.23;1.73;;;;;;;;;;10250656;28;20038;-62
2021/08/31 18:51:48;;;;;;;3.00;1.27;;;;;;;;;;10247678;28;20284;-63
2021/08/31 18:56:46;;;;;;;2.73;1.47;;;;;;;;;;10256147;28;20057;-61
2021/08/31 19:01:43;;;;;;;1.87;0.93;;;;;;;;;;10245381;28;20034;-61
2021/08/31 19:06:41;;;;;;;2.60;1.05;;;;;;;;;;10248000;28;20581;-60
2021/08/31 19:11:38;;;;;;;4.07;1.40;;;;;;;;;;10246392;28;20938;-61
2021/08/31 19:16:35;;;;;;;4.80;1.50;;;;;;;;;;10251143;28;20083;-63
2021/08/31 19:21:33;;;;;;;3.50;1.70;;;;;;;;;;10238712;28;20469;-62
2021/08/31 19:26:31;;;;;;;2.00;1.27;;;;;;;;;;10247426;28;20121;-64
2021/08/31 19:31:30;;;;;;;5.18;1.52;;;;;;;;;;10242936;28;20029;-64
2021/08/31 19:36:27;;;;;;;4.60;1.65;;;;;;;;;;10242223;28;20057;-63
2021/08/31 19:41:25;;;;;;;8.10;1.50;;;;;;;;;;10245857;28;20049;-62
2021/08/31 19:46:22;;;;;;;4.57;1.75;;;;;;;;;;10247576;28;20034;-63
2021/08/31 19:51:19;;;;;;;7.80;1.67;;;;;;;;;;10243452;28;20030;-63
2021/08/31 19:56:17;;;;;;;7.03;1.87;;;;;;;;;;10247579;28;20026;-62
2021/08/31 20:01:14;;;;;;;4.63;1.50;;;;;;;;;;10242867;28;20034;-62
2021/08/31 20:06:12;;;;;;;5.32;1.67;;;;;;;;;;10235544;28;20049;-63
2021/08/31 20:11:11;;;;;;;12.70;3.23;;;;;;;;;;10234702;28;20128;-63
2021/08/31 20:16:09;;;;;;;12.50;3.45;;;;;;;;;;10240195;28;20065;-63
2021/08/31 20:21:06;;;;;;;14.07;3.40;;;;;;;;;;10254314;28;20092;-62
2021/08/31 20:26:04;;;;;;;9.93;3.27;;;;;;;;;;10246544;28;20365;-60
2021/08/31 20:31:02;;;;;;;14.00;2.92;;;;;;;;;;10235366;28;20037;-63
2021/08/31 20:35:59;;;;;;;13.23;3.23;;;;;;;;;;10257693;28;20125;-63
2021/08/31 20:40:57;;;;;;;14.57;3.53;;;;;;;;;;10251937;28;20642;-61
2021/08/31 20:45:54;;;;;;;11.03;3.37;;;;;;;;;;10245182;28;20034;-62
2021/08/31 20:50:52;;;;;;;15.50;3.87;;;;;;;;;;10241730;28;20561;-63
2021/08/31 20:55:49;;;;;;;13.93;3.72;;;;;;;;;;10258585;28;20099;-62
2021/08/31 21:00:47;;;;;;;17.13;3.97;;;;;;;;;;10251694;28;20971;-62
2021/08/31 21:05:44;;;;;;;13.70;3.77;;;;;;;;;;10250239;28;20041;-62
2021/08/31 21:10:42;;;;;;;7.50;2.40;;;;;;;;;;10239693;28;20040;-62
2021/08/31 21:15:39;;;;;;;0.57;0.57;;;;;;;;;;10247570;28;20049;-63
2021/08/31 21:20:36;;;;;;;3.50;0.97;;;;;;;;;;10245940;28;20112;-60
2021/08/31 21:25:34;;;;;;;2.63;1.13;;;;;;;;;;10238196;28;20388;-61
2021/08/31 21:30:31;;;;;;;1.83;0.93;;;;;;;;;;10233600;28;20403;-63
2021/08/31 21:35:29;;;;;;;7.43;1.27;;;;;;;;;;10253941;28;20503;-64
2021/08/31 21:40:26;;;;;;;1.53;1.03;;;;;;;;;;10240239;28;20499;-64
2021/08/31 21:45:24;;;;;;;2.90;1.63;;;;;;;;;;10250477;28;20447;-64
2021/08/31 21:50:21;;;;;;;1.30;0.87;;;;;;;;;;10231064;28;20030;-61
2021/08/31 21:55:19;;;;;;;8.67;1.77;;;;;;;;;;10250699;28;20038;-63
2021/08/31 22:00:16;;;;;;;4.93;1.90;;;;;;;;;;10251717;28;20037;-63
2021/08/31 22:05:13;;;;;;;7.40;1.17;;;;;;;;;;10247932;28;20041;-63
2021/08/31 22:10:11;;;;;;;2.77;1.60;;;;;;;;;;10234400;28;20132;-63
2021/08/31 22:15:09;;;;;;;0.40;0.30;;;;;;;;;;10300016;22;20044;-69
2021/08/31 22:20:08;;;;;;;8.57;2.03;;;;;;;;;;10330340;28;20141;-67
2021/08/31 22:25:06;;;;;;;1.75;0.95;;;;;;;;;;10366390;28;20070;-69
2021/08/31 22:30:05;;;;;;;1.38;1.02;;;;;;;;;;10363619;28;20394;-68
2021/08/31 22:35:02;;;;;;;;;;;;;;;;;;10348682;28;20032;-68
2021/08/31 22:39:59;;;;;;;2.63;1.42;;;;;;;;;;10350709;28;19920;-66
2021/08/31 22:44:57;;;;;;;16.07;1.63;;;;;;;;;;10344139;28;20559;-68
2021/08/31 22:49:54;;;;;;;2.97;1.57;;;;;;;;;;10346686;28;20029;-67
2021/08/31 22:54:52;;;;;;;4.27;1.67;;;;;;;;;;10346588;28;20029;-68
2021/08/31 22:59:49;;;;;;;1.43;0.97;;;;;;;;;;10355387;28;20044;-68
2021/08/31 23:04:47;;;;;;;4.30;2.33;;;;;;;;;;10350570;28;20059;-65
2021/08/31 23:09:44;;;;;;;1.80;0.80;;;;;;;;;;10340894;28;20055;-65
2021/08/31 23:14:41;;;;;;;3.10;1.20;;;;;;;;;;10375186;28;20037;-63
2021/08/31 23:19:39;;;;;;;3.03;0.60;;;;;;;;;;10370486;28;20111;-66
2021/08/31 23:24:36;;;;;;;9.40;1.50;;;;;;;;;;10354203;28;20146;-64
2021/08/31 23:29:34;;;;;;;4.27;1.70;;;;;;;;;;10373126;28;20044;-67
2021/08/31 23:34:31;;;;;;;2.43;1.33;;;;;;;;;;10348810;28;20040;-67
2021/08/31 23:39:28;;;;;;;1.90;0.73;;;;;;;;;;10355600;28;20083;-66
2021/08/31 23:44:27;;;;;;;5.33;1.40;;;;;;;;;;10355847;28;20477;-66
2021/08/31 23:49:24;;;;;;;1.85;0.65;;;;;;;;;;10357196;28;20120;-66
2021/08/31 23:54:21;;;;;;;7.40;1.37;;;;;;;;;;10374909;28;20060;-68
2021/08/31 23:59:19;;;;;;;5.73;1.30;;;;;;;;;;10355674;28;20036;-66
